Juan de Fuca Strait - central strait: Past 24 Hour Conditions

 

Esquimalt Harbour

05:00 AM PST 24 November 2014
This table is a summary of hourly weather conditions for the past 24 hours.
Date / Time
(PST)
Wind(knots) Conditions Visibility(km) Pressure(kPa) Air tempC) Relative humidity(%) Dew pointC)
24 November 2014
5:00 N 3 N/A N/A 102.6 7 90 5
4:00 NE 3 N/A N/A 102.7 7 90 5
3:00 N 2 N/A N/A 102.7 7 88 5
2:00 SSW 3 N/A N/A 102.7 9 86 6
1:00 SW 2 N/A N/A 102.7 9 80 6
0:00 SW 4 N/A N/A 102.7 9 79 6
23 November 2014
23:00 WSW 5 N/A N/A 102.6 9 83 6
22:00 WSW 6 N/A N/A 102.5 8 84 6
21:00 WNW 3 N/A N/A 102.5 9 81 6
20:00 WSW 11 N/A N/A 102.4 9 81 6
19:00 SW 11 N/A N/A 102.4 10 77 6
18:00 WSW 7 N/A N/A 102.3 10 71 5
17:00 W 7 N/A N/A 102.2 10 70 5
16:00 SW 11 N/A N/A 102.1 11 67 5
15:00 SW 15 gust 21 N/A N/A 102.0 11 67 5
14:00 WSW 12 gust 19 N/A N/A 102.0 12 62 4
13:00 WSW 13 gust 22 N/A N/A 101.9 11 60 4
12:00 WSW 10 N/A N/A 101.9 11 71 6
11:00 WNW 7 N/A N/A 101.8 10 79 6
10:00 SW 19 gust 26 N/A N/A 101.7 11 75 6
9:00 SW 13 gust 20 N/A N/A 101.6 9 79 6
8:00 SSW 11 N/A N/A 101.6 10 85 7
7:00 SW 12 N/A N/A 101.6 9 85 7
6:00 SSE 12 N/A N/A 101.5 9 88 7
5:00 SSE 13 gust 18 N/A N/A 101.5 8 90 7
 
Map of Pacific - Georgia Basin marine weather areas Tsawwassen Ferry Terminal Sentry Shoal - 46131 Halibut Bank - 46146 La Perouse Bank - 46206 Discovery Island Esquimalt Harbour Kelp Reefs Malahat Race Rocks Lightstation Saturna Island Sheringham Point University of Victoria Victoria Gonzales Victoria Int'l Airport Ballenas Islands Campbell River Airport Comox Airport Entrance Island Fanny Island Nanaimo Airport Sisters Islets Estevan Point Tofino Airport Grief Point Powell River Airport Sechelt Point Atkinson Sand Heads Lightstation Vancouver Harbour Vancouver Int'l Airport West Vancouver Port Alberni Howe Sound - Pam Rocks Squamish Airport